Time,TemperatureF,DewpointF,PressureIn,WindDirection,WindDirectionDegrees,WindSpeedMPH,WindSpeedGustMPH,Humidity,HourlyPrecipIn,Conditions,Clouds,dailyrainin,SoftwareType,DateUTC
2013-05-31 00:02:00,61.0,47.0,29.55,WNW,301,1.0,5.0,61,0.00,,,0.09,,2013-05-31 05:02:00,
2013-05-31 00:12:00,61.0,47.0,29.55,WNW,301,1.0,5.0,61,0.00,,,0.09,,2013-05-31 05:12:00,
2013-05-31 00:22:00,61.0,48.0,29.55,WNW,298,1.0,5.0,62,0.00,,,0.00,,2013-05-31 05:22:00,
2013-05-31 00:32:00,61.0,48.0,29.55,WNW,285,1.0,4.0,63,0.00,,,0.00,,2013-05-31 05:32:00,
2013-05-31 00:42:00,61.0,48.0,29.55,WNW,285,1.0,4.0,63,0.00,,,0.00,,2013-05-31 05:42:00,
2013-05-31 00:52:00,60.0,48.0,29.57,WNW,286,0.0,3.0,65,0.00,,,0.00,,2013-05-31 05:52:00,
2013-05-31 01:02:00,58.0,49.0,29.57,NW,304,1.0,5.0,72,0.00,,,0.00,,2013-05-31 06:02:00,
2013-05-31 01:12:00,58.0,49.0,29.57,NW,304,1.0,5.0,72,0.00,,,0.00,,2013-05-31 06:12:00,
2013-05-31 01:21:00,56.0,49.0,29.57,NW,311,2.0,5.0,76,0.00,,,0.00,,2013-05-31 06:21:00,
2013-05-31 01:32:00,56.0,50.0,29.57,WNW,300,2.0,5.0,79,0.00,,,0.00,,2013-05-31 06:32:00,
2013-05-31 01:41:00,56.0,50.0,29.57,WNW,300,2.0,5.0,79,0.00,,,0.00,,2013-05-31 06:41:00,
2013-05-31 01:51:00,56.0,49.0,29.58,NW,322,6.0,10.0,78,0.00,,,0.00,,2013-05-31 06:51:00,
2013-05-31 02:02:00,58.0,49.0,29.59,West,281,8.0,17.0,73,0.00,,,0.00,,2013-05-31 07:02:00,
2013-05-31 02:11:00,58.0,49.0,29.59,West,281,8.0,17.0,73,0.00,,,0.00,,2013-05-31 07:11:00,
2013-05-31 02:21:00,57.0,47.0,29.59,WNW,300,8.0,14.0,70,0.00,,,0.00,,2013-05-31 07:21:00,
2013-05-31 02:32:00,56.0,47.0,29.59,West,281,7.0,13.0,71,0.00,,,0.00,,2013-05-31 07:32:00,
2013-05-31 02:41:00,56.0,47.0,29.59,West,281,7.0,13.0,71,0.00,,,0.00,,2013-05-31 07:41:00,
2013-05-31 02:52:00,56.0,47.0,29.59,WNW,296,7.0,11.0,71,0.00,,,0.00,,2013-05-31 07:52:00,
2013-05-31 03:02:00,56.0,46.0,29.59,WNW,302,6.0,11.0,68,0.00,,,0.00,,2013-05-31 08:02:00,
2013-05-31 03:11:00,56.0,46.0,29.59,WNW,302,6.0,11.0,68,0.00,,,0.00,,2013-05-31 08:11:00,
2013-05-31 03:22:00,56.0,46.0,29.59,West,272,6.0,11.0,68,0.00,,,0.00,,2013-05-31 08:22:00,
2013-05-31 03:32:00,56.0,45.0,29.59,WNW,284,6.0,10.0,67,0.00,,,0.00,,2013-05-31 08:32:00,
2013-05-31 03:42:00,56.0,45.0,29.59,WNW,284,6.0,10.0,67,0.00,,,0.00,,2013-05-31 08:42:00,
2013-05-31 03:51:00,56.0,46.0,29.59,West,277,6.0,9.0,68,0.00,,,0.00,,2013-05-31 08:51:00,
2013-05-31 04:01:00,56.0,46.0,29.59,WSW,257,4.0,8.0,68,0.00,,,0.00,,2013-05-31 09:01:00,
2013-05-31 04:11:00,56.0,46.0,29.59,WSW,257,4.0,8.0,68,0.00,,,0.00,,2013-05-31 09:11:00,
2013-05-31 04:21:00,55.0,45.0,29.59,WSW,247,6.0,9.0,70,0.00,,,0.00,,2013-05-31 09:21:00,
2013-05-31 04:32:00,55.0,45.0,29.59,WSW,239,6.0,10.0,69,0.00,,,0.00,,2013-05-31 09:32:00,
2013-05-31 04:43:00,55.0,45.0,29.59,WSW,239,6.0,10.0,69,0.00,,,0.00,,2013-05-31 09:43:00,
2013-05-31 04:53:00,54.0,44.0,29.59,WSW,256,5.0,8.0,70,0.00,,,0.00,,2013-05-31 09:53:00,
2013-05-31 05:02:00,54.0,45.0,29.58,WSW,257,5.0,8.0,72,0.00,,,0.00,,2013-05-31 10:02:00,
2013-05-31 05:12:00,54.0,45.0,29.58,WSW,257,5.0,8.0,72,0.00,,,0.00,,2013-05-31 10:12:00,
2013-05-31 05:22:00,53.0,45.0,29.58,WSW,254,3.0,8.0,74,0.00,,,0.00,,2013-05-31 10:22:00,
2013-05-31 05:33:00,53.0,45.0,29.58,West,267,3.0,7.0,75,0.00,,,0.00,,2013-05-31 10:33:00,
2013-05-31 05:42:00,53.0,45.0,29.58,West,267,3.0,7.0,75,0.00,,,0.00,,2013-05-31 10:42:00,
2013-05-31 05:52:00,52.0,45.0,29.58,WNW,289,3.0,7.0,76,0.00,,,0.00,,2013-05-31 10:52:00,
2013-05-31 06:02:00,52.0,45.0,29.58,WNW,285,4.0,7.0,77,0.00,,,0.00,,2013-05-31 11:02:00,
2013-05-31 06:12:00,52.0,45.0,29.58,WNW,285,4.0,7.0,77,0.00,,,0.00,,2013-05-31 11:12:00,
2013-05-31 06:22:00,52.0,45.0,29.59,West,273,4.0,7.0,78,0.00,,,0.00,,2013-05-31 11:22:00,
2013-05-31 06:32:00,51.0,44.0,29.59,West,279,3.0,7.0,78,0.00,,,0.00,,2013-05-31 11:32:00,
2013-05-31 06:42:00,51.0,44.0,29.59,West,279,3.0,7.0,78,0.00,,,0.00,,2013-05-31 11:42:00,
2013-05-31 06:52:00,51.0,44.0,29.59,WNW,297,4.0,6.0,78,0.00,,,0.00,,2013-05-31 11:52:00,
2013-05-31 07:01:00,51.0,44.0,29.59,West,280,4.0,8.0,78,0.00,,,0.00,,2013-05-31 12:01:00,
2013-05-31 07:11:00,51.0,44.0,29.59,West,280,4.0,8.0,78,0.00,,,0.00,,2013-05-31 12:11:00,
2013-05-31 07:21:00,51.0,45.0,29.59,WNW,298,3.0,6.0,79,0.00,,,0.00,,2013-05-31 12:21:00,
2013-05-31 07:31:00,51.0,45.0,29.59,WNW,302,3.0,5.0,79,0.00,,,0.00,,2013-05-31 12:31:00,
2013-05-31 07:41:00,51.0,45.0,29.59,WNW,302,3.0,5.0,79,0.00,,,0.00,,2013-05-31 12:41:00,
2013-05-31 07:52:00,53.0,46.0,29.58,West,271,3.0,6.0,78,0.00,,,0.00,,2013-05-31 12:52:00,
2013-05-31 08:01:00,54.0,46.0,29.59,WSW,250,5.0,8.0,75,0.00,,,0.00,,2013-05-31 13:01:00,
2013-05-31 08:11:00,54.0,46.0,29.59,WSW,250,5.0,8.0,75,0.00,,,0.00,,2013-05-31 13:11:00,
2013-05-31 08:21:00,55.0,47.0,29.59,WSW,257,4.0,8.0,75,0.00,,,0.00,,2013-05-31 13:21:00,
2013-05-31 08:32:00,56.0,47.0,29.59,West,280,5.0,9.0,72,0.00,,,0.00,,2013-05-31 13:32:00,
2013-05-31 08:42:00,56.0,47.0,29.59,West,280,5.0,9.0,72,0.00,,,0.00,,2013-05-31 13:42:00,
2013-05-31 08:52:00,57.0,48.0,29.59,West,272,4.0,7.0,72,0.00,,,0.00,,2013-05-31 13:52:00,
2013-05-31 09:02:00,58.0,48.0,29.58,WSW,257,3.0,7.0,69,0.00,,,0.00,,2013-05-31 14:02:00,
2013-05-31 09:11:00,58.0,48.0,29.58,WSW,257,3.0,7.0,69,0.00,,,0.00,,2013-05-31 14:11:00,
2013-05-31 09:21:00,60.0,47.0,29.59,West,265,9.0,15.0,63,0.00,,,0.00,,2013-05-31 14:21:00,
2013-05-31 09:32:00,61.0,47.0,29.59,WSW,257,8.0,15.0,60,0.00,,,0.00,,2013-05-31 14:32:00,
2013-05-31 09:42:00,61.0,47.0,29.59,WSW,257,8.0,15.0,60,0.00,,,0.00,,2013-05-31 14:42:00,
2013-05-31 09:52:00,62.0,47.0,29.59,WSW,250,7.0,15.0,57,0.00,,,0.00,,2013-05-31 14:52:00,
2013-05-31 10:01:00,63.0,46.0,29.58,West,275,9.0,14.0,54,0.00,,,0.00,,2013-05-31 15:01:00,
2013-05-31 10:11:00,63.0,46.0,29.58,West,275,9.0,14.0,54,0.00,,,0.00,,2013-05-31 15:11:00,
2013-05-31 10:21:00,65.0,47.0,29.58,WNW,284,8.0,17.0,52,0.00,,,0.00,,2013-05-31 15:21:00,
2013-05-31 10:33:00,65.0,45.0,29.58,West,264,9.0,19.0,48,0.00,,,0.00,,2013-05-31 15:33:00,
2013-05-31 10:43:00,65.0,45.0,29.58,West,264,9.0,19.0,48,0.00,,,0.00,,2013-05-31 15:43:00,
2013-05-31 10:53:00,65.0,44.0,29.58,NW,306,12.0,18.0,47,0.00,,,0.00,,2013-05-31 15:53:00,
2013-05-31 11:03:00,66.0,45.0,29.58,WNW,290,11.0,19.0,47,0.00,,,0.00,,2013-05-31 16:03:00,
2013-05-31 11:12:00,66.0,45.0,29.58,WNW,290,11.0,19.0,47,0.00,,,0.00,,2013-05-31 16:12:00,
2013-05-31 11:22:00,67.0,44.0,29.58,WNW,282,13.0,20.0,43,0.00,,,0.00,,2013-05-31 16:22:00,
2013-05-31 11:33:00,67.0,44.0,29.59,WNW,290,15.0,21.0,43,0.00,,,0.00,,2013-05-31 16:33:00,
2013-05-31 11:42:00,67.0,44.0,29.59,WNW,290,15.0,21.0,43,0.00,,,0.00,,2013-05-31 16:42:00,
2013-05-31 11:52:00,68.0,44.0,29.59,NW,316,14.0,22.0,42,0.00,,,0.00,,2013-05-31 16:52:00,
2013-05-31 12:02:00,68.0,45.0,29.58,West,267,13.0,22.0,43,0.00,,,0.00,,2013-05-31 17:02:00,
2013-05-31 12:12:00,68.0,45.0,29.58,West,267,13.0,22.0,43,0.00,,,0.00,,2013-05-31 17:12:00,
2013-05-31 12:22:00,69.0,44.0,29.58,West,280,13.0,24.0,40,0.00,,,0.00,,2013-05-31 17:22:00,
2013-05-31 12:32:00,70.0,43.0,29.57,WNW,291,15.0,25.0,37,0.00,,,0.00,,2013-05-31 17:32:00,
2013-05-31 12:42:00,70.0,43.0,29.57,WNW,291,15.0,25.0,37,0.00,,,0.00,,2013-05-31 17:42:00,
2013-05-31 12:52:00,69.0,43.0,29.58,NW,306,14.0,23.0,39,0.00,,,0.00,,2013-05-31 17:52:00,
2013-05-31 13:02:00,71.0,45.0,29.58,WNW,292,11.0,23.0,39,0.00,,,0.00,,2013-05-31 18:02:00,
2013-05-31 13:12:00,71.0,45.0,29.58,WNW,292,11.0,23.0,39,0.00,,,0.00,,2013-05-31 18:12:00,
2013-05-31 13:22:00,70.0,42.0,29.58,West,277,11.0,19.0,36,0.00,,,0.00,,2013-05-31 18:22:00,
2013-05-31 13:32:00,71.0,43.0,29.58,West,267,17.0,25.0,36,0.00,,,0.00,,2013-05-31 18:32:00,
2013-05-31 13:42:00,71.0,43.0,29.58,West,267,17.0,25.0,36,0.00,,,0.00,,2013-05-31 18:42:00,
2013-05-31 13:52:00,71.0,43.0,29.57,NW,311,14.0,27.0,36,0.00,,,0.00,,2013-05-31 18:52:00,
2013-05-31 14:02:00,71.0,43.0,29.58,WNW,286,13.0,23.0,37,0.00,,,0.00,,2013-05-31 19:02:00,
2013-05-31 14:11:00,71.0,43.0,29.58,WNW,286,13.0,23.0,37,0.00,,,0.00,,2013-05-31 19:11:00,
2013-05-31 14:22:00,70.0,41.0,29.58,NW,324,16.0,24.0,35,0.00,,,0.00,,2013-05-31 19:22:00,
2013-05-31 14:32:00,71.0,43.0,29.57,WNW,292,12.0,21.0,36,0.00,,,0.00,,2013-05-31 19:32:00,
2013-05-31 14:42:00,71.0,43.0,29.57,WNW,292,12.0,21.0,36,0.00,,,0.00,,2013-05-31 19:42:00,
2013-05-31 14:52:00,71.0,40.0,29.57,NNW,329,17.0,27.0,33,0.00,,,0.00,,2013-05-31 19:52:00,
2013-05-31 15:02:00,72.0,43.0,29.58,West,271,17.0,25.0,35,0.00,,,0.00,,2013-05-31 20:02:00,
2013-05-31 15:11:00,72.0,43.0,29.58,West,271,17.0,25.0,35,0.00,,,0.00,,2013-05-31 20:11:00,
2013-05-31 15:22:00,71.0,41.0,29.58,WNW,298,15.0,26.0,34,0.00,,,0.00,,2013-05-31 20:22:00,
2013-05-31 15:32:00,72.0,41.0,29.58,WNW,300,14.0,24.0,33,0.00,,,0.00,,2013-05-31 20:32:00,
2013-05-31 15:42:00,72.0,41.0,29.58,WNW,300,14.0,24.0,33,0.00,,,0.00,,2013-05-31 20:42:00,
2013-05-31 15:52:00,71.0,43.0,29.58,NW,311,13.0,26.0,36,0.00,,,0.00,,2013-05-31 20:52:00,
2013-05-31 16:01:00,71.0,43.0,29.59,WNW,293,16.0,23.0,36,0.00,,,0.00,,2013-05-31 21:01:00,
2013-05-31 16:11:00,71.0,43.0,29.59,WNW,293,16.0,23.0,36,0.00,,,0.00,,2013-05-31 21:11:00,
2013-05-31 16:22:00,71.0,43.0,29.59,WNW,300,14.0,25.0,36,0.00,,,0.00,,2013-05-31 21:22:00,
2013-05-31 16:32:00,71.0,45.0,29.59,WNW,298,13.0,25.0,39,0.00,,,0.00,,2013-05-31 21:32:00,
2013-05-31 16:42:00,71.0,45.0,29.59,WNW,298,13.0,25.0,39,0.00,,,0.00,,2013-05-31 21:42:00,
2013-05-31 16:53:00,72.0,44.0,29.59,WNW,288,14.0,19.0,37,0.00,,,0.00,,2013-05-31 21:53:00,
2013-05-31 17:02:00,71.0,44.0,29.59,WNW,288,16.0,24.0,38,0.00,,,0.00,,2013-05-31 22:02:00,
2013-05-31 17:12:00,71.0,44.0,29.59,WNW,288,16.0,24.0,38,0.00,,,0.00,,2013-05-31 22:12:00,
2013-05-31 17:22:00,71.0,43.0,29.60,West,273,17.0,25.0,36,0.00,,,0.00,,2013-05-31 22:22:00,
2013-05-31 17:33:00,70.0,44.0,29.61,WNW,296,11.0,24.0,39,0.00,,,0.00,,2013-05-31 22:33:00,
2013-05-31 17:42:00,69.0,43.0,29.61,WNW,294,15.0,22.0,39,0.00,,,0.00,,2013-05-31 22:42:00,
2013-05-31 17:52:00,69.0,43.0,29.61,WNW,294,15.0,22.0,39,0.00,,,0.00,,2013-05-31 22:52:00,
2013-05-31 18:02:00,70.0,43.0,29.61,NW,306,12.0,18.0,38,0.00,,,0.00,,2013-05-31 23:02:00,
2013-05-31 18:12:00,70.0,43.0,29.61,NW,306,12.0,18.0,38,0.00,,,0.00,,2013-05-31 23:12:00,
2013-05-31 18:21:00,70.0,44.0,29.62,NW,309,14.0,21.0,39,0.00,,,0.00,,2013-05-31 23:21:00,
2013-05-31 18:32:00,69.0,44.0,29.62,West,281,13.0,23.0,40,0.00,,,0.00,,2013-05-31 23:32:00,
2013-05-31 18:42:00,69.0,44.0,29.62,West,281,13.0,23.0,40,0.00,,,0.00,,2013-05-31 23:42:00,
2013-05-31 18:52:00,68.0,43.0,29.62,WNW,300,12.0,20.0,40,0.00,,,0.00,,2013-05-31 23:52:00,
2013-05-31 19:01:00,68.0,43.0,29.61,NW,306,13.0,21.0,41,0.00,,,0.00,,2013-06-01 00:01:00,
2013-05-31 19:12:00,68.0,43.0,29.61,NW,306,13.0,21.0,41,0.00,,,0.00,,2013-06-01 00:12:00,
2013-05-31 19:22:00,68.0,43.0,29.62,NNW,333,16.0,21.0,40,0.00,,,0.00,,2013-06-01 00:22:00,
2013-05-31 19:32:00,68.0,44.0,29.63,NNW,337,12.0,25.0,42,0.00,,,0.00,,2013-06-01 00:32:00,
2013-05-31 19:42:00,68.0,44.0,29.63,NNW,337,12.0,25.0,42,0.00,,,0.00,,2013-06-01 00:42:00,
2013-05-31 19:52:00,66.0,45.0,29.65,NNW,333,10.0,23.0,47,0.00,,,0.00,,2013-06-01 00:52:00,
2013-05-31 20:01:00,64.0,45.0,29.65,WNW,303,13.0,22.0,50,0.00,,,0.00,,2013-06-01 01:01:00,
2013-05-31 20:11:00,64.0,45.0,29.65,WNW,303,13.0,22.0,50,0.00,,,0.00,,2013-06-01 01:11:00,
2013-05-31 20:22:00,63.0,43.0,29.66,NNW,327,11.0,27.0,48,0.00,,,0.00,,2013-06-01 01:22:00,
2013-05-31 20:32:00,62.0,44.0,29.67,West,276,15.0,30.0,51,0.00,,,0.00,,2013-06-01 01:32:00,
2013-05-31 20:42:00,61.0,44.0,29.67,WNW,296,12.0,21.0,54,0.00,,,0.00,,2013-06-01 01:42:00,
2013-05-31 20:52:00,61.0,44.0,29.67,WNW,296,12.0,21.0,54,0.00,,,0.00,,2013-06-01 01:52:00,
2013-05-31 21:01:00,61.0,43.0,29.67,West,279,16.0,31.0,52,0.00,,,0.00,,2013-06-01 02:01:00,
2013-05-31 21:11:00,61.0,43.0,29.67,West,279,16.0,31.0,52,0.00,,,0.00,,2013-06-01 02:11:00,
2013-05-31 21:21:00,60.0,43.0,29.68,NW,304,16.0,26.0,54,0.00,,,0.00,,2013-06-01 02:21:00,
2013-05-31 21:32:00,59.0,43.0,29.68,WNW,295,14.0,25.0,56,0.00,,,0.00,,2013-06-01 02:32:00,
2013-05-31 21:42:00,58.0,44.0,29.68,WNW,302,10.0,23.0,59,0.00,,,0.00,,2013-06-01 02:42:00,
2013-05-31 21:51:00,58.0,44.0,29.68,WNW,302,10.0,23.0,59,0.00,,,0.00,,2013-06-01 02:51:00,
2013-05-31 22:01:00,58.0,44.0,29.69,NNW,338,11.0,24.0,60,0.00,,,0.00,,2013-06-01 03:01:00,
2013-05-31 22:11:00,58.0,44.0,29.69,NNW,338,11.0,24.0,60,0.00,,,0.00,,2013-06-01 03:11:00,
2013-05-31 22:21:00,57.0,44.0,29.69,NW,312,14.0,23.0,62,0.00,,,0.00,,2013-06-01 03:21:00,
2013-05-31 22:33:00,57.0,45.0,29.71,West,279,12.0,20.0,63,0.00,,,0.00,,2013-06-01 03:33:00,
2013-05-31 22:43:00,57.0,44.0,29.71,NW,312,13.0,25.0,61,0.00,,,0.00,,2013-06-01 03:43:00,
2013-05-31 22:53:00,57.0,44.0,29.71,NW,312,13.0,25.0,61,0.00,,,0.00,,2013-06-01 03:53:00,
2013-05-31 23:03:00,57.0,43.0,29.71,NE,50,10.0,27.0,60,0.00,,,0.00,,2013-06-01 04:03:00,
2013-05-31 23:12:00,57.0,43.0,29.71,NE,50,10.0,27.0,60,0.00,,,0.00,,2013-06-01 04:12:00,
2013-05-31 23:23:00,56.0,44.0,29.70,WNW,300,7.0,16.0,63,0.00,,,0.00,,2013-06-01 04:23:00,
2013-05-31 23:33:00,56.0,44.0,29.72,NNW,333,15.0,23.0,63,0.00,,,0.00,,2013-06-01 04:33:00,
2013-05-31 23:42:00,56.0,44.0,29.71,WNW,297,16.0,27.0,64,0.00,,,0.00,,2013-06-01 04:42:00,
2013-05-31 23:53:00,56.0,44.0,29.71,WNW,297,16.0,27.0,64,0.00,,,0.00,,2013-06-01 04:53:00,